LFLS/GNB METAR and TAF weather

Enter ICAO airport designator
Station Type Date Time Source
LFLS METAR 2019/12/09 22:00 UTC NOAA

LFLS 092200Z AUTO 34013KT 9999 FEW018 BKN052 05/02 Q1021


Station Type Date Time Source
LFLS Decoded METAR 2019/12/09 22:00 UTC NOAA

Grenoble / St. Geoirs, France (LFLS) 45-22N 005-20E 386M
Dec 09, 2019 - 05:00 PM EST / 2019.12.09 2200 UTC
Wind: from the NNW (340 degrees) at 15 MPH (13 KT):0
Visibility: greater than 7 mile(s):0
Sky conditions: mostly cloudy
Temperature: 41 F (5 C)
Dew Point: 35 F (2 C)
Relative Humidity: 80%
Pressure (altimeter): 30.15 in. Hg (1021 hPa)
ob: LFLS 092200Z AUTO 34013KT 9999 FEW018 BKN052 05/02 Q1021
cycle: 22

Station Type Date Time Source
LFLS TAF 2019/12/09 20:30 UTC NOAA

TAF LFLS 092006Z 0920/1015 CNL

Example: see airport list